Terminal Aerodrome Forecast
Issued by NWS Grand Forks, ND

Home | Current Version | Previous Version | Graphics & Text | Print | Product List | Glossary On
Versions: 1 2 3 4 5 6 7 8 9 10 11 12 13 14 15 16 17 18
000
FTUS43 KFGF 120535
TAFGFK
TAF
KGFK 120535Z 1206/1306 24004KT P6SM BKN025
     FM120800 20004KT P6SM OVC035
     FM121700 19005KT P6SM OVC035
     FM130100 17006KT P6SM SCT150=

USA.gov is the U.S. government's official web portal to all federal, state and local government web resources and services.